sensor_id;sensor_type;location;lat;lon;timestamp;temperature;humidity
61255;DHT22;47128;47.530;8.584;2022-08-06T00:01:52;21.70;99.90
61255;DHT22;47128;47.530;8.584;2022-08-06T00:04:18;21.80;99.90
61255;DHT22;47128;47.530;8.584;2022-08-06T00:06:44;21.90;99.90
61255;DHT22;47128;47.530;8.584;2022-08-06T00:09:10;22.00;99.90
61255;DHT22;47128;47.530;8.584;2022-08-06T00:11:40;22.00;99.90
61255;DHT22;47128;47.530;8.584;2022-08-06T00:14:06;21.90;99.90
61255;DHT22;47128;47.530;8.584;2022-08-06T00:16:32;21.90;99.90
61255;DHT22;47128;47.530;8.584;2022-08-06T00:18:57;21.90;99.90
61255;DHT22;47128;47.530;8.584;2022-08-06T00:21:23;21.80;99.90
61255;DHT22;47128;47.530;8.584;2022-08-06T00:23:49;21.70;99.90
61255;DHT22;47128;47.530;8.584;2022-08-06T00:26:15;21.60;99.90
61255;DHT22;47128;47.530;8.584;2022-08-06T00:28:40;21.70;99.90
61255;DHT22;47128;47.530;8.584;2022-08-06T00:31:06;21.80;99.90
61255;DHT22;47128;47.530;8.584;2022-08-06T00:33:33;21.80;99.90
61255;DHT22;47128;47.530;8.584;2022-08-06T00:35:59;21.70;99.90
61255;DHT22;47128;47.530;8.584;2022-08-06T00:38:24;21.70;99.90
61255;DHT22;47128;47.530;8.584;2022-08-06T00:40:50;21.70;99.90
61255;DHT22;47128;47.530;8.584;2022-08-06T00:43:16;21.80;99.90
61255;DHT22;47128;47.530;8.584;2022-08-06T00:45:42;21.80;99.90
61255;DHT22;47128;47.530;8.584;2022-08-06T00:48:08;21.90;99.90
61255;DHT22;47128;47.530;8.584;2022-08-06T00:50:34;21.90;99.90
61255;DHT22;47128;47.530;8.584;2022-08-06T00:53:00;21.80;99.90
61255;DHT22;47128;47.530;8.584;2022-08-06T00:55:26;21.70;99.90
61255;DHT22;47128;47.530;8.584;2022-08-06T00:57:52;21.70;99.90
61255;DHT22;47128;47.530;8.584;2022-08-06T01:00:18;21.70;99.90
61255;DHT22;47128;47.530;8.584;2022-08-06T01:02:43;21.70;99.90
61255;DHT22;47128;47.530;8.584;2022-08-06T01:05:09;21.70;99.90
61255;DHT22;47128;47.530;8.584;2022-08-06T01:07:34;21.70;99.90
61255;DHT22;47128;47.530;8.584;2022-08-06T01:10:00;21.70;99.90
61255;DHT22;47128;47.530;8.584;2022-08-06T01:12:26;21.80;99.90
61255;DHT22;47128;47.530;8.584;2022-08-06T01:14:52;21.80;99.90
61255;DHT22;47128;47.530;8.584;2022-08-06T01:17:29;21.70;99.90
61255;DHT22;47128;47.530;8.584;2022-08-06T01:20:02;21.70;99.90
61255;DHT22;47128;47.530;8.584;2022-08-06T01:30:18;21.70;99.90
61255;DHT22;47128;47.530;8.584;2022-08-06T01:32:56;21.70;99.90
61255;DHT22;47128;47.530;8.584;2022-08-06T01:35:28;21.80;99.90
61255;DHT22;47128;47.530;8.584;2022-08-06T01:37:59;21.80;99.90
61255;DHT22;47128;47.530;8.584;2022-08-06T01:40:32;21.70;99.90
61255;DHT22;47128;47.530;8.584;2022-08-06T01:43:00;21.70;99.90
61255;DHT22;47128;47.530;8.584;2022-08-06T01:45:29;21.60;99.90
61255;DHT22;47128;47.530;8.584;2022-08-06T01:47:59;21.70;99.90
61255;DHT22;47128;47.530;8.584;2022-08-06T01:50:43;21.70;99.90
61255;DHT22;47128;47.530;8.584;2022-08-06T01:53:14;21.60;99.90
61255;DHT22;47128;47.530;8.584;2022-08-06T01:55:43;21.60;99.90
61255;DHT22;47128;47.530;8.584;2022-08-06T01:58:11;21.60;99.90
61255;DHT22;47128;47.530;8.584;2022-08-06T02:00:41;21.70;99.90
61255;DHT22;47128;47.530;8.584;2022-08-06T02:03:29;21.80;99.90
61255;DHT22;47128;47.530;8.584;2022-08-06T02:05:56;21.80;99.90
61255;DHT22;47128;47.530;8.584;2022-08-06T02:08:26;21.80;99.90
61255;DHT22;47128;47.530;8.584;2022-08-06T02:10:53;21.80;99.90
61255;DHT22;47128;47.530;8.584;2022-08-06T02:13:21;21.80;99.90
61255;DHT22;47128;47.530;8.584;2022-08-06T02:15:49;21.80;99.90
61255;DHT22;47128;47.530;8.584;2022-08-06T02:18:18;21.80;99.90
61255;DHT22;47128;47.530;8.584;2022-08-06T02:20:47;21.60;99.90
61255;DHT22;47128;47.530;8.584;2022-08-06T02:25:44;21.30;99.90
61255;DHT22;47128;47.530;8.584;2022-08-06T02:28:13;21.20;99.90
61255;DHT22;47128;47.530;8.584;2022-08-06T02:30:43;21.10;99.90
61255;DHT22;47128;47.530;8.584;2022-08-06T02:33:10;21.00;99.90
61255;DHT22;47128;47.530;8.584;2022-08-06T02:36:03;21.10;99.90
61255;DHT22;47128;47.530;8.584;2022-08-06T02:38:50;21.20;99.90
61255;DHT22;47128;47.530;8.584;2022-08-06T02:41:22;21.20;99.90
61255;DHT22;47128;47.530;8.584;2022-08-06T02:43:58;21.20;99.90
61255;DHT22;47128;47.530;8.584;2022-08-06T02:46:34;21.00;99.90
61255;DHT22;47128;47.530;8.584;2022-08-06T02:51:45;20.80;99.90
61255;DHT22;47128;47.530;8.584;2022-08-06T02:54:37;20.70;99.90
61255;DHT22;47128;47.530;8.584;2022-08-06T02:57:06;20.80;99.90
61255;DHT22;47128;47.530;8.584;2022-08-06T02:59:42;20.90;99.90
61255;DHT22;47128;47.530;8.584;2022-08-06T03:02:10;20.80;99.90
61255;DHT22;47128;47.530;8.584;2022-08-06T03:04:42;20.80;99.90
61255;DHT22;47128;47.530;8.584;2022-08-06T03:07:10;20.80;99.90
61255;DHT22;47128;47.530;8.584;2022-08-06T03:09:38;20.90;99.90
61255;DHT22;47128;47.530;8.584;2022-08-06T03:12:06;20.90;99.90
61255;DHT22;47128;47.530;8.584;2022-08-06T03:14:33;20.90;99.90
61255;DHT22;47128;47.530;8.584;2022-08-06T03:17:00;20.90;99.90
61255;DHT22;47128;47.530;8.584;2022-08-06T03:19:27;20.90;99.90
61255;DHT22;47128;47.530;8.584;2022-08-06T03:21:53;20.90;99.90
61255;DHT22;47128;47.530;8.584;2022-08-06T03:24:20;20.80;99.90
61255;DHT22;47128;47.530;8.584;2022-08-06T03:26:47;20.60;99.90
61255;DHT22;47128;47.530;8.584;2022-08-06T03:29:14;20.50;99.90
61255;DHT22;47128;47.530;8.584;2022-08-06T03:31:40;20.50;99.90
61255;DHT22;47128;47.530;8.584;2022-08-06T03:34:07;20.60;99.90
61255;DHT22;47128;47.530;8.584;2022-08-06T03:36:34;20.50;99.90
61255;DHT22;47128;47.530;8.584;2022-08-06T03:39:03;20.50;99.90
61255;DHT22;47128;47.530;8.584;2022-08-06T03:41:34;20.50;99.90
61255;DHT22;47128;47.530;8.584;2022-08-06T03:44:01;20.60;99.90
61255;DHT22;47128;47.530;8.584;2022-08-06T03:49:21;20.60;99.90
61255;DHT22;47128;47.530;8.584;2022-08-06T03:51:50;20.60;99.90
61255;DHT22;47128;47.530;8.584;2022-08-06T03:54:21;20.50;99.90
61255;DHT22;47128;47.530;8.584;2022-08-06T03:56:48;20.60;99.90
61255;DHT22;47128;47.530;8.584;2022-08-06T03:59:17;20.50;99.90
61255;DHT22;47128;47.530;8.584;2022-08-06T04:01:45;20.50;99.90
61255;DHT22;47128;47.530;8.584;2022-08-06T04:04:12;20.40;99.90
61255;DHT22;47128;47.530;8.584;2022-08-06T04:06:39;20.40;99.90
61255;DHT22;47128;47.530;8.584;2022-08-06T04:09:05;20.50;99.90
61255;DHT22;47128;47.530;8.584;2022-08-06T04:11:31;20.50;99.90
61255;DHT22;47128;47.530;8.584;2022-08-06T04:13:58;20.50;99.90
61255;DHT22;47128;47.530;8.584;2022-08-06T04:16:25;20.50;99.90
61255;DHT22;47128;47.530;8.584;2022-08-06T04:18:53;20.50;99.90
61255;DHT22;47128;47.530;8.584;2022-08-06T04:21:22;20.40;99.90
61255;DHT22;47128;47.530;8.584;2022-08-06T04:23:49;20.30;99.90
61255;DHT22;47128;47.530;8.584;2022-08-06T04:26:19;20.30;99.90
61255;DHT22;47128;47.530;8.584;2022-08-06T04:28:50;20.30;99.90
61255;DHT22;47128;47.530;8.584;2022-08-06T04:31:18;20.20;99.90
61255;DHT22;47128;47.530;8.584;2022-08-06T04:33:44;20.20;99.90
61255;DHT22;47128;47.530;8.584;2022-08-06T04:36:11;20.30;99.90
61255;DHT22;47128;47.530;8.584;2022-08-06T04:38:38;20.20;99.90
61255;DHT22;47128;47.530;8.584;2022-08-06T04:41:05;20.20;99.90
61255;DHT22;47128;47.530;8.584;2022-08-06T04:43:31;20.30;99.90
61255;DHT22;47128;47.530;8.584;2022-08-06T04:45:57;20.30;99.90
61255;DHT22;47128;47.530;8.584;2022-08-06T04:48:23;20.30;99.90
61255;DHT22;47128;47.530;8.584;2022-08-06T04:50:49;20.40;99.90
61255;DHT22;47128;47.530;8.584;2022-08-06T04:53:17;20.30;99.90
61255;DHT22;47128;47.530;8.584;2022-08-06T04:55:44;20.40;99.90
61255;DHT22;47128;47.530;8.584;2022-08-06T04:58:13;20.30;99.90
61255;DHT22;47128;47.530;8.584;2022-08-06T05:00:44;20.20;99.90
61255;DHT22;47128;47.530;8.584;2022-08-06T05:03:10;20.30;99.90
61255;DHT22;47128;47.530;8.584;2022-08-06T05:06:00;20.40;99.90
61255;DHT22;47128;47.530;8.584;2022-08-06T05:08:29;20.40;99.90
61255;DHT22;47128;47.530;8.584;2022-08-06T05:11:15;20.40;99.90
61255;DHT22;47128;47.530;8.584;2022-08-06T05:13:43;20.30;99.90
61255;DHT22;47128;47.530;8.584;2022-08-06T05:16:11;20.20;99.90
61255;DHT22;47128;47.530;8.584;2022-08-06T05:18:49;20.20;99.90
61255;DHT22;47128;47.530;8.584;2022-08-06T05:21:20;20.20;99.90
61255;DHT22;47128;47.530;8.584;2022-08-06T05:23:52;20.20;99.90
61255;DHT22;47128;47.530;8.584;2022-08-06T05:26:19;20.30;99.90
61255;DHT22;47128;47.530;8.584;2022-08-06T05:28:44;20.30;99.90
61255;DHT22;47128;47.530;8.584;2022-08-06T05:31:10;20.30;99.90
61255;DHT22;47128;47.530;8.584;2022-08-06T05:33:38;20.20;99.90
61255;DHT22;47128;47.530;8.584;2022-08-06T05:36:09;20.30;99.90
61255;DHT22;47128;47.530;8.584;2022-08-06T05:38:40;20.20;99.90
61255;DHT22;47128;47.530;8.584;2022-08-06T05:41:10;20.10;99.90
61255;DHT22;47128;47.530;8.584;2022-08-06T05:43:37;20.10;99.90
61255;DHT22;47128;47.530;8.584;2022-08-06T05:46:11;20.10;99.10
61255;DHT22;47128;47.530;8.584;2022-08-06T05:49:08;20.20;99.50
61255;DHT22;47128;47.530;8.584;2022-08-06T05:51:37;20.20;98.70
61255;DHT22;47128;47.530;8.584;2022-08-06T05:54:17;20.20;98.30
61255;DHT22;47128;47.530;8.584;2022-08-06T05:56:46;20.20;98.00
61255;DHT22;47128;47.530;8.584;2022-08-06T05:59:24;20.10;98.70
61255;DHT22;47128;47.530;8.584;2022-08-06T06:01:51;20.10;98.60
61255;DHT22;47128;47.530;8.584;2022-08-06T06:04:18;20.00;98.30
61255;DHT22;47128;47.530;8.584;2022-08-06T06:06:44;20.10;98.00
61255;DHT22;47128;47.530;8.584;2022-08-06T06:09:10;20.10;98.00
61255;DHT22;47128;47.530;8.584;2022-08-06T06:11:37;20.10;98.10
61255;DHT22;47128;47.530;8.584;2022-08-06T06:14:03;19.90;97.60
61255;DHT22;47128;47.530;8.584;2022-08-06T06:17:01;19.70;99.30
61255;DHT22;47128;47.530;8.584;2022-08-06T06:22:59;19.70;97.90
61255;DHT22;47128;47.530;8.584;2022-08-06T06:25:27;19.50;97.80
61255;DHT22;47128;47.530;8.584;2022-08-06T06:28:02;19.40;97.80
61255;DHT22;47128;47.530;8.584;2022-08-06T06:31:26;19.40;98.30
61255;DHT22;47128;47.530;8.584;2022-08-06T06:34:14;19.40;98.10
61255;DHT22;47128;47.530;8.584;2022-08-06T06:36:49;19.40;98.00
61255;DHT22;47128;47.530;8.584;2022-08-06T06:39:45;19.30;97.80
61255;DHT22;47128;47.530;8.584;2022-08-06T06:42:25;19.20;97.70
61255;DHT22;47128;47.530;8.584;2022-08-06T06:45:16;19.20;98.00
61255;DHT22;47128;47.530;8.584;2022-08-06T06:47:55;19.30;98.10
61255;DHT22;47128;47.530;8.584;2022-08-06T06:50:27;19.20;97.90
61255;DHT22;47128;47.530;8.584;2022-08-06T06:52:55;19.10;98.00
61255;DHT22;47128;47.530;8.584;2022-08-06T06:55:46;19.10;97.90
61255;DHT22;47128;47.530;8.584;2022-08-06T06:58:27;19.10;98.10
61255;DHT22;47128;47.530;8.584;2022-08-06T07:00:54;18.90;98.60
61255;DHT22;47128;47.530;8.584;2022-08-06T07:03:22;18.70;98.70
61255;DHT22;47128;47.530;8.584;2022-08-06T07:05:49;18.80;98.80
61255;DHT22;47128;47.530;8.584;2022-08-06T07:08:21;18.60;98.80
61255;DHT22;47128;47.530;8.584;2022-08-06T07:10:49;18.70;99.00
61255;DHT22;47128;47.530;8.584;2022-08-06T07:13:16;18.80;99.10
61255;DHT22;47128;47.530;8.584;2022-08-06T07:15:44;18.80;98.80
61255;DHT22;47128;47.530;8.584;2022-08-06T07:18:11;18.60;98.80
61255;DHT22;47128;47.530;8.584;2022-08-06T07:20:38;18.70;99.00
61255;DHT22;47128;47.530;8.584;2022-08-06T07:23:06;18.90;99.00
61255;DHT22;47128;47.530;8.584;2022-08-06T07:25:45;18.80;98.70
61255;DHT22;47128;47.530;8.584;2022-08-06T07:28:12;18.80;98.70
61255;DHT22;47128;47.530;8.584;2022-08-06T07:30:43;18.80;98.80
61255;DHT22;47128;47.530;8.584;2022-08-06T07:33:10;18.80;98.70
61255;DHT22;47128;47.530;8.584;2022-08-06T07:35:40;18.70;99.00
61255;DHT22;47128;47.530;8.584;2022-08-06T07:38:08;18.80;99.00
61255;DHT22;47128;47.530;8.584;2022-08-06T07:40:43;18.50;99.10
61255;DHT22;47128;47.530;8.584;2022-08-06T07:45:45;18.60;99.40
61255;DHT22;47128;47.530;8.584;2022-08-06T07:48:13;18.50;99.10
61255;DHT22;47128;47.530;8.584;2022-08-06T07:50:42;18.50;99.30
61255;DHT22;47128;47.530;8.584;2022-08-06T07:53:10;18.60;99.10
61255;DHT22;47128;47.530;8.584;2022-08-06T07:55:37;18.50;99.30
61255;DHT22;47128;47.530;8.584;2022-08-06T07:58:04;18.50;99.20
61255;DHT22;47128;47.530;8.584;2022-08-06T08:00:30;18.50;99.10
61255;DHT22;47128;47.530;8.584;2022-08-06T08:02:57;18.60;99.20
61255;DHT22;47128;47.530;8.584;2022-08-06T08:05:43;18.30;99.30
61255;DHT22;47128;47.530;8.584;2022-08-06T08:08:28;18.30;99.70
61255;DHT22;47128;47.530;8.584;2022-08-06T08:10:55;18.30;99.60
61255;DHT22;47128;47.530;8.584;2022-08-06T08:13:22;18.30;99.70
61255;DHT22;47128;47.530;8.584;2022-08-06T08:15:49;18.30;99.70
61255;DHT22;47128;47.530;8.584;2022-08-06T08:18:15;18.40;99.50
61255;DHT22;47128;47.530;8.584;2022-08-06T08:20:42;18.50;99.70
61255;DHT22;47128;47.530;8.584;2022-08-06T08:23:11;18.40;99.80
61255;DHT22;47128;47.530;8.584;2022-08-06T08:25:37;18.40;99.60
61255;DHT22;47128;47.530;8.584;2022-08-06T08:28:07;18.50;99.40
61255;DHT22;47128;47.530;8.584;2022-08-06T08:30:33;18.40;99.80
61255;DHT22;47128;47.530;8.584;2022-08-06T08:32:58;18.10;99.70
61255;DHT22;47128;47.530;8.584;2022-08-06T08:35:24;18.30;99.90
61255;DHT22;47128;47.530;8.584;2022-08-06T08:37:50;18.20;99.90
61255;DHT22;47128;47.530;8.584;2022-08-06T08:40:15;18.10;99.90
61255;DHT22;47128;47.530;8.584;2022-08-06T08:42:46;18.30;99.90
61255;DHT22;47128;47.530;8.584;2022-08-06T08:45:13;18.50;99.70
61255;DHT22;47128;47.530;8.584;2022-08-06T08:47:50;18.30;99.80
61255;DHT22;47128;47.530;8.584;2022-08-06T08:50:18;18.20;99.90
61255;DHT22;47128;47.530;8.584;2022-08-06T08:52:46;18.30;99.90
61255;DHT22;47128;47.530;8.584;2022-08-06T08:55:15;18.40;99.80
61255;DHT22;47128;47.530;8.584;2022-08-06T08:57:42;18.70;99.70
61255;DHT22;47128;47.530;8.584;2022-08-06T09:00:08;18.50;99.60
61255;DHT22;47128;47.530;8.584;2022-08-06T09:02:39;18.60;99.60
61255;DHT22;47128;47.530;8.584;2022-08-06T09:05:06;18.60;99.50
61255;DHT22;47128;47.530;8.584;2022-08-06T09:07:32;18.70;99.40
61255;DHT22;47128;47.530;8.584;2022-08-06T09:09:59;18.60;99.90
61255;DHT22;47128;47.530;8.584;2022-08-06T09:12:24;18.70;99.70
61255;DHT22;47128;47.530;8.584;2022-08-06T09:14:50;18.80;99.30
61255;DHT22;47128;47.530;8.584;2022-08-06T09:17:16;19.00;99.50
61255;DHT22;47128;47.530;8.584;2022-08-06T09:19:43;18.90;99.20
61255;DHT22;47128;47.530;8.584;2022-08-06T09:22:09;18.70;99.40
61255;DHT22;47128;47.530;8.584;2022-08-06T09:24:36;18.80;99.50
61255;DHT22;47128;47.530;8.584;2022-08-06T09:29:27;18.80;99.40
61255;DHT22;47128;47.530;8.584;2022-08-06T09:31:53;18.90;99.40
61255;DHT22;47128;47.530;8.584;2022-08-06T09:34:19;18.90;99.20
61255;DHT22;47128;47.530;8.584;2022-08-06T09:36:46;18.80;99.40
61255;DHT22;47128;47.530;8.584;2022-08-06T09:39:12;18.80;99.70
61255;DHT22;47128;47.530;8.584;2022-08-06T09:41:48;18.90;99.60
61255;DHT22;47128;47.530;8.584;2022-08-06T09:44:14;19.10;99.70
61255;DHT22;47128;47.530;8.584;2022-08-06T09:46:45;19.10;99.20
61255;DHT22;47128;47.530;8.584;2022-08-06T09:49:13;19.10;99.10
61255;DHT22;47128;47.530;8.584;2022-08-06T09:51:40;19.20;99.20
61255;DHT22;47128;47.530;8.584;2022-08-06T09:54:10;19.30;99.30
61255;DHT22;47128;47.530;8.584;2022-08-06T09:59:08;19.60;98.30
61255;DHT22;47128;47.530;8.584;2022-08-06T10:01:42;19.70;98.20
61255;DHT22;47128;47.530;8.584;2022-08-06T10:04:25;19.70;98.20
61255;DHT22;47128;47.530;8.584;2022-08-06T10:07:00;19.80;98.00
61255;DHT22;47128;47.530;8.584;2022-08-06T10:09:27;19.60;98.50
61255;DHT22;47128;47.530;8.584;2022-08-06T10:11:54;19.40;98.50
61255;DHT22;47128;47.530;8.584;2022-08-06T10:19:36;19.50;98.70
61255;DHT22;47128;47.530;8.584;2022-08-06T10:24:55;19.90;98.30
61255;DHT22;47128;47.530;8.584;2022-08-06T10:27:22;19.80;98.10
61255;DHT22;47128;47.530;8.584;2022-08-06T10:29:53;19.80;97.90
61255;DHT22;47128;47.530;8.584;2022-08-06T10:32:37;19.70;98.30
61255;DHT22;47128;47.530;8.584;2022-08-06T10:35:05;19.70;98.30
61255;DHT22;47128;47.530;8.584;2022-08-06T10:37:35;19.80;98.00
61255;DHT22;47128;47.530;8.584;2022-08-06T10:40:03;19.60;98.50
61255;DHT22;47128;47.530;8.584;2022-08-06T10:42:31;19.60;98.00
61255;DHT22;47128;47.530;8.584;2022-08-06T10:44:58;19.70;97.90
61255;DHT22;47128;47.530;8.584;2022-08-06T10:47:24;19.60;97.90
61255;DHT22;47128;47.530;8.584;2022-08-06T10:49:52;19.60;98.00
61255;DHT22;47128;47.530;8.584;2022-08-06T10:52:17;19.50;98.20
61255;DHT22;47128;47.530;8.584;2022-08-06T10:54:44;19.60;98.00
61255;DHT22;47128;47.530;8.584;2022-08-06T10:57:10;19.70;97.70
61255;DHT22;47128;47.530;8.584;2022-08-06T10:59:40;19.70;97.20
61255;DHT22;47128;47.530;8.584;2022-08-06T11:02:28;19.80;97.30
61255;DHT22;47128;47.530;8.584;2022-08-06T11:05:03;20.00;96.50
61255;DHT22;47128;47.530;8.584;2022-08-06T11:10:35;20.30;96.00
61255;DHT22;47128;47.530;8.584;2022-08-06T11:15:37;20.30;96.00
61255;DHT22;47128;47.530;8.584;2022-08-06T11:18:07;20.40;95.70
61255;DHT22;47128;47.530;8.584;2022-08-06T11:22:59;20.20;95.70
61255;DHT22;47128;47.530;8.584;2022-08-06T11:25:45;20.20;96.20
61255;DHT22;47128;47.530;8.584;2022-08-06T11:28:16;20.30;95.90
61255;DHT22;47128;47.530;8.584;2022-08-06T11:30:45;20.50;95.70
61255;DHT22;47128;47.530;8.584;2022-08-06T11:33:13;20.60;95.30
61255;DHT22;47128;47.530;8.584;2022-08-06T11:35:44;20.60;95.20
61255;DHT22;47128;47.530;8.584;2022-08-06T11:38:13;20.50;95.40
61255;DHT22;47128;47.530;8.584;2022-08-06T11:41:02;20.60;95.30
61255;DHT22;47128;47.530;8.584;2022-08-06T11:43:46;20.70;95.10
61255;DHT22;47128;47.530;8.584;2022-08-06T11:54:27;20.80;94.60
61255;DHT22;47128;47.530;8.584;2022-08-06T11:59:36;20.90;94.60
61255;DHT22;47128;47.530;8.584;2022-08-06T12:02:12;20.80;94.80
61255;DHT22;47128;47.530;8.584;2022-08-06T12:04:39;20.90;94.70
61255;DHT22;47128;47.530;8.584;2022-08-06T12:09:41;21.10;93.90
61255;DHT22;47128;47.530;8.584;2022-08-06T12:14:55;21.50;93.30
61255;DHT22;47128;47.530;8.584;2022-08-06T12:17:22;21.60;93.60
61255;DHT22;47128;47.530;8.584;2022-08-06T12:19:50;21.70;92.90
61255;DHT22;47128;47.530;8.584;2022-08-06T12:22:18;21.70;92.80
61255;DHT22;47128;47.530;8.584;2022-08-06T12:24:47;21.70;92.40
61255;DHT22;47128;47.530;8.584;2022-08-06T12:27:14;21.70;92.50
61255;DHT22;47128;47.530;8.584;2022-08-06T12:29:41;21.80;92.30
61255;DHT22;47128;47.530;8.584;2022-08-06T12:32:30;21.80;92.30
61255;DHT22;47128;47.530;8.584;2022-08-06T12:34:58;21.80;92.30
61255;DHT22;47128;47.530;8.584;2022-08-06T12:37:37;21.60;92.10
61255;DHT22;47128;47.530;8.584;2022-08-06T12:40:07;21.30;92.80
61255;DHT22;47128;47.530;8.584;2022-08-06T12:42:53;21.20;92.80
61255;DHT22;47128;47.530;8.584;2022-08-06T12:45:26;21.30;93.10
61255;DHT22;47128;47.530;8.584;2022-08-06T12:47:58;21.20;92.90
61255;DHT22;47128;47.530;8.584;2022-08-06T12:50:24;21.00;93.00
61255;DHT22;47128;47.530;8.584;2022-08-06T12:53:10;20.90;93.40
61255;DHT22;47128;47.530;8.584;2022-08-06T12:55:45;21.10;93.00
61255;DHT22;47128;47.530;8.584;2022-08-06T12:58:12;21.30;93.20
61255;DHT22;47128;47.530;8.584;2022-08-06T13:00:41;21.40;92.80
61255;DHT22;47128;47.530;8.584;2022-08-06T13:03:08;21.60;92.20
61255;DHT22;47128;47.530;8.584;2022-08-06T13:05:35;21.60;91.70
61255;DHT22;47128;47.530;8.584;2022-08-06T13:08:02;21.60;92.20
61255;DHT22;47128;47.530;8.584;2022-08-06T13:10:28;21.60;91.90
61255;DHT22;47128;47.530;8.584;2022-08-06T13:12:59;21.80;91.80
61255;DHT22;47128;47.530;8.584;2022-08-06T13:15:26;22.00;91.10
61255;DHT22;47128;47.530;8.584;2022-08-06T13:20:40;22.10;91.30
61255;DHT22;47128;47.530;8.584;2022-08-06T13:23:06;22.30;91.10
61255;DHT22;47128;47.530;8.584;2022-08-06T13:25:47;22.20;90.70
61255;DHT22;47128;47.530;8.584;2022-08-06T13:28:17;22.10;91.30
61255;DHT22;47128;47.530;8.584;2022-08-06T13:30:45;22.20;90.80
61255;DHT22;47128;47.530;8.584;2022-08-06T13:33:12;22.30;90.90
61255;DHT22;47128;47.530;8.584;2022-08-06T13:35:39;22.30;90.50
61255;DHT22;47128;47.530;8.584;2022-08-06T13:38:05;22.30;90.60
61255;DHT22;47128;47.530;8.584;2022-08-06T13:40:42;22.40;90.20
61255;DHT22;47128;47.530;8.584;2022-08-06T13:43:09;22.40;90.20
61255;DHT22;47128;47.530;8.584;2022-08-06T13:45:36;22.50;90.10
61255;DHT22;47128;47.530;8.584;2022-08-06T13:48:09;22.70;90.30
61255;DHT22;47128;47.530;8.584;2022-08-06T13:50:36;22.40;89.50
61255;DHT22;47128;47.530;8.584;2022-08-06T13:53:02;22.10;90.30
61255;DHT22;47128;47.530;8.584;2022-08-06T13:55:28;21.90;90.80
61255;DHT22;47128;47.530;8.584;2022-08-06T13:57:57;21.90;90.30
61255;DHT22;47128;47.530;8.584;2022-08-06T14:00:24;22.00;90.50
61255;DHT22;47128;47.530;8.584;2022-08-06T14:02:50;22.00;90.70
61255;DHT22;47128;47.530;8.584;2022-08-06T14:05:16;21.90;90.30
61255;DHT22;47128;47.530;8.584;2022-08-06T14:07:42;22.00;90.50
61255;DHT22;47128;47.530;8.584;2022-08-06T14:10:08;22.10;90.20
61255;DHT22;47128;47.530;8.584;2022-08-06T14:12:34;22.20;90.10
61255;DHT22;47128;47.530;8.584;2022-08-06T14:15:00;22.10;90.20
61255;DHT22;47128;47.530;8.584;2022-08-06T14:17:26;21.90;90.50
61255;DHT22;47128;47.530;8.584;2022-08-06T14:19:52;21.60;91.00
61255;DHT22;47128;47.530;8.584;2022-08-06T14:22:17;21.70;91.30
61255;DHT22;47128;47.530;8.584;2022-08-06T14:24:44;21.60;91.40
61255;DHT22;47128;47.530;8.584;2022-08-06T14:27:10;21.80;91.20
61255;DHT22;47128;47.530;8.584;2022-08-06T14:29:36;22.00;90.90
61255;DHT22;47128;47.530;8.584;2022-08-06T14:32:03;21.90;90.60
61255;DHT22;47128;47.530;8.584;2022-08-06T14:34:29;21.90;90.90
61255;DHT22;47128;47.530;8.584;2022-08-06T14:36:55;22.00;91.00
61255;DHT22;47128;47.530;8.584;2022-08-06T14:39:20;21.90;91.00
61255;DHT22;47128;47.530;8.584;2022-08-06T14:41:47;22.00;90.70
61255;DHT22;47128;47.530;8.584;2022-08-06T14:44:31;22.10;90.80
61255;DHT22;47128;47.530;8.584;2022-08-06T14:47:15;22.20;90.30
61255;DHT22;47128;47.530;8.584;2022-08-06T14:49:41;21.90;90.60
61255;DHT22;47128;47.530;8.584;2022-08-06T14:52:07;21.80;91.00
61255;DHT22;47128;47.530;8.584;2022-08-06T14:54:34;21.90;91.30
61255;DHT22;47128;47.530;8.584;2022-08-06T14:57:02;21.70;91.10
61255;DHT22;47128;47.530;8.584;2022-08-06T14:59:28;21.70;91.10
61255;DHT22;47128;47.530;8.584;2022-08-06T15:01:54;21.80;90.80
61255;DHT22;47128;47.530;8.584;2022-08-06T15:04:20;22.00;90.80
61255;DHT22;47128;47.530;8.584;2022-08-06T15:06:46;22.00;90.30
61255;DHT22;47128;47.530;8.584;2022-08-06T15:09:11;22.10;90.30
61255;DHT22;47128;47.530;8.584;2022-08-06T15:11:37;22.30;90.70
61255;DHT22;47128;47.530;8.584;2022-08-06T15:14:04;22.40;90.40
61255;DHT22;47128;47.530;8.584;2022-08-06T15:16:30;22.30;90.50
61255;DHT22;47128;47.530;8.584;2022-08-06T15:18:56;22.20;90.30
61255;DHT22;47128;47.530;8.584;2022-08-06T15:21:22;22.30;90.10
61255;DHT22;47128;47.530;8.584;2022-08-06T15:23:48;22.30;90.00
61255;DHT22;47128;47.530;8.584;2022-08-06T15:26:14;22.20;90.30
61255;DHT22;47128;47.530;8.584;2022-08-06T15:28:40;22.20;90.40
61255;DHT22;47128;47.530;8.584;2022-08-06T15:31:06;22.20;90.40
61255;DHT22;47128;47.530;8.584;2022-08-06T15:33:43;22.00;90.70
61255;DHT22;47128;47.530;8.584;2022-08-06T15:36:16;22.10;90.50
61255;DHT22;47128;47.530;8.584;2022-08-06T15:38:42;22.30;90.40
61255;DHT22;47128;47.530;8.584;2022-08-06T15:41:08;22.30;90.50
61255;DHT22;47128;47.530;8.584;2022-08-06T15:43:34;22.40;90.30
61255;DHT22;47128;47.530;8.584;2022-08-06T15:46:00;22.40;90.10
61255;DHT22;47128;47.530;8.584;2022-08-06T15:48:29;22.40;90.30
61255;DHT22;47128;47.530;8.584;2022-08-06T15:50:56;22.60;90.30
61255;DHT22;47128;47.530;8.584;2022-08-06T15:53:22;22.50;90.10
61255;DHT22;47128;47.530;8.584;2022-08-06T15:55:49;22.50;90.40
61255;DHT22;47128;47.530;8.584;2022-08-06T15:58:15;22.40;90.10
61255;DHT22;47128;47.530;8.584;2022-08-06T16:00:41;22.30;90.10
61255;DHT22;47128;47.530;8.584;2022-08-06T16:03:09;22.20;90.30
61255;DHT22;47128;47.530;8.584;2022-08-06T16:05:36;22.20;90.40
61255;DHT22;47128;47.530;8.584;2022-08-06T16:08:02;22.30;90.30
61255;DHT22;47128;47.530;8.584;2022-08-06T16:10:28;22.20;90.10
61255;DHT22;47128;47.530;8.584;2022-08-06T16:12:54;22.10;90.10
61255;DHT22;47128;47.530;8.584;2022-08-06T16:15:20;22.20;90.10
61255;DHT22;47128;47.530;8.584;2022-08-06T16:17:46;22.30;90.20
61255;DHT22;47128;47.530;8.584;2022-08-06T16:20:13;22.40;90.10
61255;DHT22;47128;47.530;8.584;2022-08-06T16:22:39;22.20;90.40
61255;DHT22;47128;47.530;8.584;2022-08-06T16:25:05;22.20;90.40
61255;DHT22;47128;47.530;8.584;2022-08-06T16:27:31;22.30;90.20
61255;DHT22;47128;47.530;8.584;2022-08-06T16:29:57;22.30;90.50
61255;DHT22;47128;47.530;8.584;2022-08-06T16:32:22;22.20;90.50
61255;DHT22;47128;47.530;8.584;2022-08-06T16:34:48;22.10;90.90
61255;DHT22;47128;47.530;8.584;2022-08-06T16:37:15;22.10;90.60
61255;DHT22;47128;47.530;8.584;2022-08-06T16:39:40;22.00;90.90
61255;DHT22;47128;47.530;8.584;2022-08-06T16:42:08;22.00;91.20
61255;DHT22;47128;47.530;8.584;2022-08-06T16:44:34;22.00;91.30
61255;DHT22;47128;47.530;8.584;2022-08-06T16:47:00;22.10;90.80